Time;durP1;ratioP1;P1;durP2;ratioP2;P2;SDS_P1;SDS_P2;PMS_P1;PMS_P2;Temp;Humidity;BMP_temperature;BMP_pressure;BME280_temperature;BME280_humidity;BME280_pressure;Samples;Min_cycle;Max_cycle;Signal;HPM_P1;HPM_P2
2022/12/21 00:00:50;;;;;;;15.25;5.95;;;14.60;88.50;;;;;;4977440;28;20470;-89
2022/12/21 00:03:15;;;;;;;15.80;5.97;;;14.70;88.50;;;;;;4978671;28;20050;-90
2022/12/21 00:05:41;;;;;;;20.50;6.05;;;14.60;88.50;;;;;;4993485;28;20027;-90
2022/12/21 00:08:06;;;;;;;23.20;5.78;;;14.60;88.60;;;;;;4977186;28;20029;-90
2022/12/21 00:10:32;;;;;;;11.10;5.32;;;14.60;88.50;;;;;;4976907;28;20023;-91
2022/12/21 00:12:57;;;;;;;14.63;4.65;;;14.60;88.50;;;;;;4977454;28;20054;-88
2022/12/21 00:15:23;;;;;;;13.02;5.43;;;14.70;88.60;;;;;;4978227;28;20027;-88
2022/12/21 00:17:48;;;;;;;19.77;5.32;;;14.60;88.50;;;;;;4977331;28;20391;-89
2022/12/21 00:20:14;;;;;;;12.38;5.28;;;14.60;88.50;;;;;;4978222;28;20526;-90
2022/12/21 00:22:40;;;;;;;20.92;5.38;;;14.60;88.50;;;;;;4992965;28;20065;-90
2022/12/21 00:25:06;;;;;;;14.90;4.35;;;14.60;88.60;;;;;;4997627;28;20072;-89
2022/12/21 00:27:31;;;;;;;11.38;4.20;;;14.60;88.60;;;;;;4996702;28;20125;-89
2022/12/21 00:29:57;;;;;;;15.45;5.78;;;14.60;88.70;;;;;;4996447;28;20026;-90
2022/12/21 00:32:22;;;;;;;15.55;5.40;;;14.60;88.80;;;;;;4996492;28;20019;-90
2022/12/21 00:34:48;;;;;;;21.98;4.65;;;14.60;88.80;;;;;;4996573;28;20026;-90
2022/12/21 00:37:14;;;;;;;13.13;4.72;;;14.60;88.80;;;;;;4996526;28;20026;-89
2022/12/21 00:39:39;;;;;;;17.25;4.47;;;14.60;88.80;;;;;;4995894;28;20027;-89
2022/12/21 00:42:05;;;;;;;14.25;4.95;;;14.60;88.80;;;;;;4996407;28;20034;-90
2022/12/21 00:44:30;;;;;;;21.35;5.32;;;14.60;88.80;;;;;;4997514;28;20030;-89
2022/12/21 00:46:56;;;;;;;10.55;4.63;;;14.60;88.80;;;;;;4995673;28;20487;-90
2022/12/21 00:49:22;;;;;;;10.55;4.72;;;14.60;88.90;;;;;;4995961;28;20030;-90
2022/12/21 00:51:47;;;;;;;15.82;4.35;;;14.60;88.90;;;;;;4996308;28;20035;-89
2022/12/21 00:54:13;;;;;;;8.98;4.32;;;14.60;88.90;;;;;;4995820;28;20525;-90
2022/12/21 00:56:38;;;;;;;13.07;4.55;;;14.60;88.80;;;;;;4995812;28;20046;-90
2022/12/21 00:59:04;;;;;;;16.30;5.10;;;14.60;88.90;;;;;;4995637;28;20026;-88
2022/12/21 01:01:32;;;;;;;10.88;4.32;;;14.50;88.90;;;;;;4995587;28;20022;-90
2022/12/21 01:03:59;;;;;;;11.20;4.13;;;14.60;88.90;;;;;;4996689;28;20106;-90
2022/12/21 01:06:27;;;;;;;10.68;4.88;;;14.60;88.90;;;;;;4995213;28;20400;-90
2022/12/21 01:08:54;;;;;;;11.82;4.10;;;14.60;88.90;;;;;;4976113;28;20045;-89
2022/12/21 01:11:20;;;;;;;10.35;4.70;;;14.50;88.90;;;;;;4974921;28;20058;-89
2022/12/21 01:13:46;;;;;;;12.65;4.90;;;14.60;88.90;;;;;;4977144;28;20023;-90
2022/12/21 01:16:15;;;;;;;15.23;4.25;;;14.50;88.90;;;;;;4981680;28;20488;-89
2022/12/21 01:18:41;;;;;;;15.30;4.15;;;14.60;89.00;;;;;;4996993;28;20165;-90
2022/12/21 01:21:12;;;;;;;10.13;4.25;;;14.50;89.10;;;;;;4996556;28;20065;-90
2022/12/21 01:23:37;;;;;;;17.83;5.18;;;14.50;89.20;;;;;;4996668;28;20034;-90
2022/12/21 01:26:03;;;;;;;12.75;4.85;;;14.60;89.30;;;;;;4994939;28;20037;-91
2022/12/21 01:28:29;;;;;;;17.70;4.80;;;14.60;89.30;;;;;;4995316;28;20395;-90
2022/12/21 01:30:58;;;;;;;21.40;4.65;;;14.60;89.30;;;;;;4996279;28;20033;-89
2022/12/21 01:33:24;;;;;;;19.50;5.15;;;14.60;89.90;;;;;;4995509;28;20027;-90
2022/12/21 01:35:49;;;;;;;11.45;4.15;;;14.60;89.60;;;;;;4995193;28;20033;-89
2022/12/21 01:38:15;;;;;;;9.93;4.45;;;14.60;89.60;;;;;;4995206;28;20026;-89
2022/12/21 01:40:40;;;;;;;11.10;5.45;;;14.60;89.60;;;;;;4996486;28;20086;-90
2022/12/21 01:43:18;;;;;;;16.92;5.70;;;14.60;89.70;;;;;;4995412;28;20030;-89
2022/12/21 01:45:47;;;;;;;20.30;4.75;;;14.50;89.70;;;;;;4995072;28;20030;-88
2022/12/21 01:48:17;;;;;;;11.95;4.57;;;14.60;90.20;;;;;;4996514;28;20022;-89
2022/12/21 01:50:50;;;;;;;16.60;5.47;;;14.50;89.80;;;;;;4995148;28;20042;-90
2022/12/21 01:53:27;;;;;;;17.77;4.68;;;14.60;89.90;;;;;;4996125;28;20022;-89
2022/12/21 01:55:55;;;;;;;13.05;4.30;;;14.50;89.80;;;;;;4995646;28;20022;-91
2022/12/21 01:58:24;;;;;;;14.07;4.63;;;14.50;90.30;;;;;;4995076;28;20026;-89
2022/12/21 02:00:50;;;;;;;17.13;4.83;;;14.60;90.00;;;;;;4995075;28;20030;-90
2022/12/21 02:03:22;;;;;;;13.15;4.28;;;14.50;89.80;;;;;;4995055;28;20041;-88
2022/12/21 02:06:04;;;;;;;11.73;3.95;;;14.50;89.80;;;;;;4995029;28;20053;-88
2022/12/21 02:08:30;;;;;;;14.40;3.90;;;14.60;89.90;;;;;;4995741;28;20035;-90
2022/12/21 02:10:58;;;;;;;11.68;4.40;;;14.60;90.00;;;;;;4994518;28;20044;-90
2022/12/21 02:13:23;;;;;;;22.10;4.60;;;14.50;90.00;;;;;;4995116;28;20506;-90
2022/12/21 02:15:59;;;;;;;12.00;4.30;;;14.50;90.00;;;;;;4994340;28;20026;-90
2022/12/21 02:18:44;;;;;;;14.32;5.05;;;14.50;90.00;;;;;;5011083;28;20028;-90
2022/12/21 02:21:25;;;;;;;15.82;4.82;;;14.50;90.00;;;;;;5010795;28;20027;-89
2022/12/21 02:24:11;;;;;;;13.05;3.97;;;14.50;90.00;;;;;;4994838;28;20502;-89
2022/12/21 02:26:55;;;;;;;14.25;4.63;;;14.50;90.00;;;;;;4995914;28;20037;-89
2022/12/21 02:29:42;;;;;;;10.13;3.85;;;14.50;90.00;;;;;;4994326;28;20026;-90
2022/12/21 02:32:23;;;;;;;12.77;4.03;;;14.50;90.00;;;;;;4994690;28;20030;-89
2022/12/21 02:34:57;;;;;;;18.48;4.30;;;14.50;90.00;;;;;;4994542;28;20030;-90
2022/12/21 02:37:33;;;;;;;11.27;3.60;;;14.50;90.00;;;;;;4994180;28;20029;-90
2022/12/21 02:40:10;;;;;;;10.15;4.03;;;14.50;90.00;;;;;;4995295;28;20397;-91
2022/12/21 02:45:57;;;;;;;11.70;3.72;;;14.50;90.00;;;;;;4976038;28;20443;-89
2022/12/21 02:48:29;;;;;;;14.18;3.45;;;14.50;90.00;;;;;;4974357;28;20118;-92
2022/12/21 02:50:59;;;;;;;9.48;3.72;;;14.50;90.00;;;;;;4974580;28;20023;-89
2022/12/21 02:53:31;;;;;;;;;;;14.50;90.00;;;;;;4974854;28;20034;-89
2022/12/21 02:55:57;;;;;;;12.38;3.67;;;14.50;90.00;;;;;;4974007;28;20005;-90
2022/12/21 02:58:24;;;;;;;9.13;3.72;;;14.50;90.10;;;;;;4974123;28;20058;-90
2022/12/21 03:00:52;;;;;;;8.05;3.55;;;14.50;90.00;;;;;;4975325;28;20407;-88
2022/12/21 03:03:50;;;;;;;14.23;4.00;;;14.40;90.00;;;;;;4974068;28;20031;-90
2022/12/21 03:06:40;;;;;;;8.52;4.00;;;14.50;90.00;;;;;;4974100;28;20030;-90
2022/12/21 03:09:05;;;;;;;;;;;14.50;90.00;;;;;;4974490;28;20388;-88
2022/12/21 03:11:48;;;;;;;9.45;4.05;;;14.50;90.00;;;;;;4982315;28;19906;-90
2022/12/21 03:14:39;;;;;;;6.82;3.50;;;14.50;90.10;;;;;;4974235;28;20054;-89
2022/12/21 03:17:21;;;;;;;13.30;3.90;;;14.50;90.10;;;;;;4974077;28;20039;-90
2022/12/21 03:19:56;;;;;;;10.45;3.28;;;14.40;90.00;;;;;;4983991;28;20033;-91
2022/12/21 03:22:35;;;;;;;7.82;4.05;;;14.50;90.40;;;;;;4994369;28;20080;-88
2022/12/21 03:25:27;;;;;;;7.40;3.28;;;14.50;90.10;;;;;;5051023;23;20049;-90
2022/12/21 03:27:58;;;;;;;6.25;2.75;;;14.50;90.20;;;;;;5021436;28;20046;-91
2022/12/21 03:30:25;;;;;;;11.73;3.85;;;14.40;90.20;;;;;;5015351;28;20022;-91
2022/12/21 03:32:58;;;;;;;7.15;3.65;;;14.50;90.20;;;;;;5014787;28;20026;-91
2022/12/21 03:35:30;;;;;;;6.47;3.00;;;14.40;90.20;;;;;;5013585;28;20026;-91
2022/12/21 03:38:01;;;;;;;9.85;3.55;;;14.40;90.20;;;;;;5015723;28;20025;-91
2022/12/21 03:40:30;;;;;;;9.38;3.75;;;14.40;90.20;;;;;;5015684;28;20026;-91
2022/12/21 03:43:26;;;;;;;5.47;3.10;;;14.50;90.20;;;;;;5016609;28;20026;-91
2022/12/21 03:46:02;;;;;;;11.43;3.28;;;14.40;90.20;;;;;;5014098;28;20030;-91
2022/12/21 03:48:32;;;;;;;5.22;3.15;;;14.50;90.20;;;;;;5015716;28;20462;-91
2022/12/21 03:51:08;;;;;;;10.90;3.22;;;14.40;90.10;;;;;;5017224;28;20022;-91
2022/12/21 03:53:49;;;;;;;12.25;3.67;;;14.40;90.20;;;;;;5016180;28;20438;-91
2022/12/21 03:56:23;;;;;;;9.32;3.50;;;14.40;90.20;;;;;;5014789;28;20022;-91
2022/12/21 03:58:49;;;;;;;8.90;3.35;;;14.50;90.20;;;;;;5014411;28;20018;-91
2022/12/21 04:01:28;;;;;;;7.63;3.67;;;14.40;90.20;;;;;;5017496;28;20048;-91
2022/12/21 04:04:00;;;;;;;10.80;3.22;;;14.40;90.20;;;;;;5017956;28;20030;-91
2022/12/21 04:06:29;;;;;;;8.57;3.38;;;14.40;90.20;;;;;;5017016;28;20033;-91
2022/12/21 04:08:55;;;;;;;11.25;3.80;;;14.40;90.20;;;;;;5017244;28;20036;-92
2022/12/21 04:14:05;;;;;;;9.25;3.33;;;14.40;90.20;;;;;;5017423;28;20056;-91
2022/12/21 04:16:30;;;;;;;7.18;3.30;;;14.40;90.50;;;;;;5016715;28;20018;-91
2022/12/21 04:21:40;;;;;;;6.50;2.75;;;14.40;90.20;;;;;;5017921;28;20036;-91
2022/12/21 04:29:34;;;;;;;7.30;2.70;;;14.40;90.30;;;;;;5017940;28;20033;-91
2022/12/21 04:31:59;;;;;;;10.07;2.85;;;14.40;90.30;;;;;;5016572;28;20022;-91
2022/12/21 04:34:25;;;;;;;6.95;3.22;;;14.40;90.30;;;;;;5016745;28;20018;-91
2022/12/21 04:39:34;;;;;;;7.75;3.00;;;14.40;90.30;;;;;;5017503;28;20040;-91
2022/12/21 04:42:00;;;;;;;8.95;3.83;;;14.40;90.30;;;;;;5016118;28;20026;-92
2022/12/21 04:44:25;;;;;;;9.45;2.92;;;14.40;90.30;;;;;;5015270;28;20034;-91
2022/12/21 04:46:51;;;;;;;6.00;2.85;;;14.40;90.30;;;;;;5018787;28;20029;-91
2022/12/21 04:49:16;;;;;;;8.73;2.90;;;14.40;90.30;;;;;;5018734;28;20029;-90
2022/12/21 04:51:42;;;;;;;10.13;3.78;;;14.40;90.30;;;;;;5018445;28;20025;-91
2022/12/21 04:54:08;;;;;;;7.20;2.63;;;14.40;90.30;;;;;;5018378;28;20109;-91
2022/12/21 04:56:33;;;;;;;7.55;3.10;;;14.40;90.30;;;;;;5018501;28;20403;-91
2022/12/21 04:58:59;;;;;;;7.28;3.53;;;14.40;90.40;;;;;;5018514;28;20022;-91
2022/12/21 05:01:24;;;;;;;9.57;2.88;;;14.40;90.40;;;;;;5018825;28;20033;-91
2022/12/21 05:03:50;;;;;;;6.72;3.10;;;14.40;90.40;;;;;;5019105;28;20518;-90
2022/12/21 05:06:18;;;;;;;5.32;2.85;;;14.40;90.40;;;;;;5019074;28;20025;-91
2022/12/21 05:08:44;;;;;;;4.93;2.88;;;14.40;90.40;;;;;;5018842;28;20080;-91
2022/12/21 05:11:20;;;;;;;6.53;2.80;;;14.30;90.40;;;;;;5018264;28;20094;-91
2022/12/21 05:13:46;;;;;;;9.23;2.60;;;14.30;90.40;;;;;;5018073;28;20018;-91
2022/12/21 05:16:15;;;;;;;8.23;2.92;;;14.40;90.40;;;;;;5018645;28;20126;-91
2022/12/21 05:18:41;;;;;;;4.47;2.75;;;14.40;90.30;;;;;;5018499;28;20186;-91
2022/12/21 05:21:06;;;;;;;8.63;3.05;;;14.30;90.30;;;;;;5016554;28;20146;-90
2022/12/21 05:23:32;;;;;;;9.20;3.38;;;14.40;90.30;;;;;;5016811;28;20041;-91
2022/12/21 05:26:00;;;;;;;7.18;3.67;;;14.40;90.30;;;;;;5016802;28;20033;-91
2022/12/21 05:28:25;;;;;;;8.18;3.38;;;14.30;90.30;;;;;;5017671;28;20030;-91
2022/12/21 05:30:51;;;;;;;9.52;2.50;;;14.40;90.30;;;;;;5016284;28;20571;-91
2022/12/21 05:33:17;;;;;;;5.60;2.45;;;14.30;90.30;;;;;;5017237;28;20106;-92
2022/12/21 05:35:42;;;;;;;8.25;2.92;;;14.40;90.30;;;;;;5017372;28;20026;-91
2022/12/21 05:38:08;;;;;;;5.82;2.85;;;14.30;90.30;;;;;;5017806;28;20048;-91
2022/12/21 05:40:34;;;;;;;9.05;2.65;;;14.30;90.30;;;;;;5017433;28;20541;-91
2022/12/21 05:43:04;;;;;;;10.75;2.58;;;14.30;90.30;;;;;;5018440;28;20029;-91
2022/12/21 05:45:30;;;;;;;7.93;2.88;;;14.30;90.50;;;;;;5010443;28;20483;-91
2022/12/21 05:47:55;;;;;;;5.60;2.55;;;14.40;90.70;;;;;;5017587;28;20033;-91
2022/12/21 05:50:22;;;;;;;9.52;2.88;;;14.40;90.70;;;;;;5016505;28;20029;-91
2022/12/21 05:52:47;;;;;;;4.82;2.50;;;14.40;90.60;;;;;;5017538;28;20022;-90
2022/12/21 05:55:13;;;;;;;4.60;2.50;;;14.40;90.60;;;;;;5015836;28;20048;-91
2022/12/21 05:57:39;;;;;;;8.57;2.75;;;14.40;90.70;;;;;;5016448;28;20077;-91
2022/12/21 06:00:05;;;;;;;11.25;3.10;;;14.40;90.70;;;;;;5015620;28;20080;-92
2022/12/21 06:02:31;;;;;;;6.57;2.30;;;14.40;90.70;;;;;;5017198;28;20057;-91
2022/12/21 06:04:56;;;;;;;5.38;2.55;;;14.50;90.70;;;;;;5024406;28;20044;-90
2022/12/21 06:07:22;;;;;;;6.93;2.72;;;14.40;90.70;;;;;;5017090;28;20060;-90
2022/12/21 06:09:47;;;;;;;5.78;2.75;;;14.50;90.70;;;;;;5019546;28;20030;-91
2022/12/21 06:12:13;;;;;;;6.47;2.75;;;14.50;90.70;;;;;;5025852;28;20022;-91
2022/12/21 06:14:39;;;;;;;5.07;2.50;;;14.50;90.70;;;;;;5025780;28;20026;-91
2022/12/21 06:17:04;;;;;;;19.15;3.45;;;14.50;90.60;;;;;;5032991;28;20018;-91
2022/12/21 06:19:30;;;;;;;7.07;2.88;;;14.50;90.60;;;;;;5021772;28;20030;-91
2022/12/21 06:21:55;;;;;;;5.38;2.75;;;14.50;90.60;;;;;;5017890;28;20022;-91
2022/12/21 06:24:21;;;;;;;6.13;2.97;;;14.50;90.60;;;;;;5017131;28;20029;-91
2022/12/21 06:26:47;;;;;;;8.13;2.55;;;14.50;90.60;;;;;;5020455;28;20041;-91
2022/12/21 06:29:13;;;;;;;9.13;2.40;;;14.50;90.60;;;;;;5035258;28;20025;-90
2022/12/21 06:31:38;;;;;;;6.38;2.50;;;14.60;90.60;;;;;;5035558;28;20017;-92
2022/12/21 06:34:04;;;;;;;6.28;2.63;;;14.60;90.60;;;;;;5035210;28;20156;-90
2022/12/21 06:36:31;;;;;;;9.73;3.10;;;14.60;90.60;;;;;;5024307;28;20044;-91
2022/12/21 06:38:57;;;;;;;4.68;2.33;;;14.60;90.60;;;;;;5014814;28;20030;-90
2022/12/21 06:41:23;;;;;;;4.47;2.45;;;14.60;90.50;;;;;;5016313;28;20077;-91
2022/12/21 06:43:50;;;;;;;7.45;2.83;;;14.60;90.60;;;;;;5025143;28;20068;-92
2022/12/21 06:46:18;;;;;;;10.77;2.75;;;14.60;90.70;;;;;;5020975;28;20036;-91
2022/12/21 06:48:43;;;;;;;7.28;2.60;;;14.60;90.60;;;;;;5016689;28;20025;-89
2022/12/21 06:51:18;;;;;;;10.18;2.35;;;14.70;90.60;;;;;;5013805;28;20079;-90
2022/12/21 06:53:45;;;;;;;8.02;2.97;;;14.60;90.50;;;;;;5015694;28;20407;-91
2022/12/21 06:56:16;;;;;;;4.45;2.38;;;14.60;90.50;;;;;;5015049;28;20056;-90
2022/12/21 06:58:42;;;;;;;12.25;2.58;;;14.70;90.40;;;;;;5017177;28;20103;-91
2022/12/21 07:01:17;;;;;;;8.48;2.60;;;14.70;90.40;;;;;;5016321;28;20030;-90
2022/12/21 07:03:43;;;;;;;14.05;3.03;;;14.70;90.40;;;;;;5016165;28;20036;-90
2022/12/21 07:06:10;;;;;;;4.13;2.20;;;14.70;90.40;;;;;;5016000;28;20125;-90
2022/12/21 07:08:36;;;;;;;7.53;2.08;;;14.70;90.40;;;;;;5016653;28;20049;-89
2022/12/21 07:11:06;;;;;;;13.10;2.97;;;14.70;90.40;;;;;;5016122;28;20026;-91
2022/12/21 07:13:34;;;;;;;;;;;14.80;90.30;;;;;;5017334;28;20125;-92
2022/12/21 07:15:59;;;;;;;8.23;2.45;;;14.70;90.30;;;;;;5016357;28;19988;-90
2022/12/21 07:18:25;;;;;;;10.32;2.63;;;14.70;90.30;;;;;;5016416;28;20065;-90
2022/12/21 07:20:56;;;;;;;10.98;2.40;;;14.70;90.30;;;;;;5017556;28;20033;-90
2022/12/21 07:23:22;;;;;;;8.10;1.90;;;14.70;90.20;;;;;;5013332;28;20025;-90
2022/12/21 07:25:48;;;;;;;6.45;2.38;;;14.80;90.20;;;;;;5014300;28;20391;-89
2022/12/21 07:28:13;;;;;;;5.47;2.75;;;14.80;90.30;;;;;;5012886;28;20506;-89
2022/12/21 07:30:39;;;;;;;9.95;2.28;;;14.80;90.20;;;;;;5012997;28;20471;-89
2022/12/21 07:33:04;;;;;;;10.60;2.33;;;14.80;90.20;;;;;;5013306;28;20105;-89
2022/12/21 07:35:31;;;;;;;6.05;2.22;;;14.80;90.20;;;;;;5014054;28;20422;-90
2022/12/21 07:37:57;;;;;;;7.38;3.03;;;14.80;90.10;;;;;;5012750;28;20028;-90
2022/12/21 07:40:22;;;;;;;5.45;2.30;;;14.80;90.10;;;;;;5015004;28;20092;-89
2022/12/21 07:42:48;;;;;;;9.38;2.05;;;14.80;90.10;;;;;;5017334;28;20033;-91
2022/12/21 07:45:14;;;;;;;9.27;2.15;;;14.90;90.20;;;;;;5017532;28;20029;-93
2022/12/21 07:47:40;;;;;;;21.10;3.97;;;14.90;90.20;;;;;;5024460;28;20033;-91
2022/12/21 07:50:06;;;;;;;14.07;4.13;;;14.80;86.70;;;;;;5023626;28;20041;-90
2022/12/21 07:52:32;;;;;;;9.10;2.92;;;14.50;86.70;;;;;;5040199;28;20027;-92
2022/12/21 07:54:58;;;;;;;14.77;3.65;;;14.60;86.20;;;;;;5030772;28;20025;-92
2022/12/21 07:57:24;;;;;;;16.92;3.08;;;14.70;86.20;;;;;;5010151;28;20061;-91
2022/12/21 07:59:49;;;;;;;10.02;3.22;;;14.70;86.50;;;;;;5011325;28;20068;-91
2022/12/21 08:02:15;;;;;;;10.40;2.80;;;14.80;86.80;;;;;;5008842;28;20044;-91
2022/12/21 08:04:41;;;;;;;15.77;2.72;;;14.80;87.10;;;;;;5009146;28;20075;-92
2022/12/21 08:07:07;;;;;;;13.57;3.28;;;14.80;87.30;;;;;;5005951;28;20026;-91
2022/12/21 08:09:33;;;;;;;10.85;3.35;;;14.90;87.70;;;;;;5014403;28;20046;-91
2022/12/21 08:11:59;;;;;;;9.40;2.78;;;14.90;87.90;;;;;;5014591;28;20033;-92
2022/12/21 08:14:24;;;;;;;8.40;2.70;;;14.90;88.10;;;;;;5002253;28;20023;-91
2022/12/21 08:16:50;;;;;;;8.48;2.67;;;14.90;88.30;;;;;;4997083;28;20100;-91
2022/12/21 08:19:16;;;;;;;16.80;2.35;;;14.90;88.60;;;;;;5013280;28;20050;-90
2022/12/21 08:21:41;;;;;;;11.20;3.28;;;14.90;88.60;;;;;;5007760;28;20077;-90
2022/12/21 08:24:07;;;;;;;9.88;2.97;;;15.00;88.70;;;;;;5015355;28;20463;-90
2022/12/21 08:26:33;;;;;;;9.98;2.38;;;15.00;88.90;;;;;;5015604;28;20030;-91
2022/12/21 08:28:59;;;;;;;7.88;2.55;;;15.00;89.00;;;;;;5016509;28;20475;-91
2022/12/21 08:31:24;;;;;;;23.27;3.20;;;15.00;89.00;;;;;;5014604;28;20068;-91
2022/12/21 08:33:50;;;;;;;11.45;2.88;;;15.00;89.00;;;;;;5008324;28;20044;-92
2022/12/21 08:36:19;;;;;;;9.02;2.58;;;15.00;89.10;;;;;;5012969;28;20018;-91
2022/12/21 08:38:45;;;;;;;13.65;3.03;;;15.10;89.20;;;;;;5014153;28;20102;-92
2022/12/21 08:41:11;;;;;;;9.65;2.72;;;15.10;89.30;;;;;;5014850;28;20029;-91
2022/12/21 08:43:38;;;;;;;5.38;2.65;;;15.10;90.00;;;;;;5010312;28;20022;-92
2022/12/21 08:46:06;;;;;;;11.23;3.28;;;15.10;89.30;;;;;;5002674;28;20042;-89
2022/12/21 08:48:32;;;;;;;11.45;3.20;;;15.10;89.30;;;;;;5014143;28;20034;-90
2022/12/21 08:50:59;;;;;;;10.70;2.72;;;15.10;89.40;;;;;;5014086;28;20026;-91
2022/12/21 08:53:25;;;;;;;10.65;3.22;;;15.10;89.40;;;;;;5015706;28;20021;-91
2022/12/21 08:55:51;;;;;;;13.07;3.20;;;15.10;89.40;;;;;;5011834;28;20375;-93
2022/12/21 08:58:17;;;;;;;11.20;3.15;;;15.20;89.50;;;;;;5008708;28;20022;-92
2022/12/21 09:00:43;;;;;;;8.35;3.30;;;15.20;90.10;;;;;;5004350;28;20117;-91
2022/12/21 09:03:10;;;;;;;9.85;3.28;;;15.20;89.40;;;;;;5015020;28;20053;-92
2022/12/21 09:05:35;;;;;;;8.02;3.92;;;15.20;89.50;;;;;;5014828;28;20025;-92
2022/12/21 09:08:02;;;;;;;8.95;3.80;;;15.20;90.10;;;;;;5015313;28;20033;-92
2022/12/21 09:10:28;;;;;;;6.15;3.42;;;15.20;89.40;;;;;;5010705;28;20023;-91
2022/12/21 09:12:57;;;;;;;13.75;4.00;;;15.20;89.40;;;;;;5014049;28;20084;-91
2022/12/21 09:15:23;;;;;;;6.80;3.55;;;15.20;89.40;;;;;;5016893;28;20025;-89
2022/12/21 09:17:49;;;;;;;11.13;4.22;;;15.20;89.50;;;;;;5017727;28;20030;-90
2022/12/21 09:20:15;;;;;;;6.88;3.42;;;15.20;89.60;;;;;;5018092;28;20033;-92
2022/12/21 09:22:40;;;;;;;6.53;4.00;;;15.30;89.50;;;;;;5014918;28;20022;-90
2022/12/21 09:25:07;;;;;;;13.07;3.72;;;15.10;87.40;;;;;;5013989;28;20034;-90
2022/12/21 09:27:33;;;;;;;7.90;3.60;;;14.70;84.10;;;;;;5016465;28;20104;-89
2022/12/21 09:29:58;;;;;;;8.95;3.65;;;14.10;83.80;;;;;;5003881;28;20129;-88
2022/12/21 09:32:24;;;;;;;7.80;3.17;;;13.70;82.40;;;;;;5011521;28;20042;-90
2022/12/21 09:34:50;;;;;;;4.80;3.10;;;13.40;83.90;;;;;;5013819;28;20025;-88
2022/12/21 09:37:16;;;;;;;4.13;2.78;;;13.30;83.60;;;;;;5006936;28;20072;-89
2022/12/21 09:39:42;;;;;;;4.57;3.33;;;13.10;84.20;;;;;;5013322;28;20040;-89
2022/12/21 09:42:35;;;;;;;4.18;2.78;;;13.20;84.10;;;;;;5012951;28;20034;-89
2022/12/21 09:45:18;;;;;;;7.13;3.00;;;13.20;83.60;;;;;;5013778;28;20077;-90
2022/12/21 09:48:00;;;;;;;6.85;2.50;;;13.40;84.30;;;;;;5014202;28;20109;-90
2022/12/21 09:50:37;;;;;;;10.63;3.20;;;13.80;83.40;;;;;;5012265;28;20075;-89
2022/12/21 09:53:29;;;;;;;8.30;2.30;;;14.10;83.00;;;;;;5002742;28;20022;-90
2022/12/21 09:55:59;;;;;;;5.30;2.42;;;14.30;82.90;;;;;;5006952;28;20438;-90
2022/12/21 09:58:46;;;;;;;9.88;2.45;;;14.40;83.10;;;;;;5018693;28;20025;-89
2022/12/21 10:01:27;;;;;;;4.68;2.42;;;14.40;83.20;;;;;;5008436;28;20522;-88
2022/12/21 10:04:06;;;;;;;4.18;2.30;;;14.50;83.70;;;;;;5013885;28;20021;-89
2022/12/21 10:06:32;;;;;;;14.63;2.75;;;14.50;84.20;;;;;;5014332;28;20057;-88
2022/12/21 10:09:06;;;;;;;6.93;2.60;;;14.60;84.80;;;;;;5014121;28;20033;-88
2022/12/21 10:11:43;;;;;;;8.45;2.65;;;14.60;85.10;;;;;;5015440;28;20033;-87
2022/12/21 10:14:29;;;;;;;6.22;3.10;;;14.60;85.40;;;;;;5015771;28;20029;-88
2022/12/21 10:16:58;;;;;;;6.70;2.65;;;14.60;85.80;;;;;;5014709;28;20097;-89
2022/12/21 10:19:55;;;;;;;10.00;3.05;;;14.60;86.00;;;;;;5013593;28;20127;-89
2022/12/21 10:22:31;;;;;;;4.82;2.55;;;14.60;86.10;;;;;;4994486;28;20153;-88
2022/12/21 10:25:01;;;;;;;8.80;3.42;;;14.70;86.20;;;;;;5011961;28;20113;-87
2022/12/21 10:27:30;;;;;;;8.73;3.10;;;14.70;86.40;;;;;;5013337;28;20080;-88
2022/12/21 10:29:58;;;;;;;6.60;2.70;;;14.70;86.40;;;;;;5013141;28;20032;-88
2022/12/21 10:32:33;;;;;;;4.78;2.10;;;14.70;86.50;;;;;;5012672;28;20021;-88
2022/12/21 10:35:35;;;;;;;6.25;2.85;;;14.70;86.50;;;;;;5013072;28;20065;-88
2022/12/21 10:38:01;;;;;;;5.68;2.70;;;14.80;86.60;;;;;;5013001;28;20053;-89
2022/12/21 10:40:31;;;;;;;5.50;2.08;;;14.80;86.60;;;;;;5013869;28;20062;-88
2022/12/21 10:42:57;;;;;;;14.82;2.90;;;14.80;87.10;;;;;;5013367;28;20049;-86
2022/12/21 10:45:24;;;;;;;6.38;2.42;;;14.90;87.20;;;;;;5018010;28;20064;-85
2022/12/21 10:47:50;;;;;;;8.15;2.58;;;14.90;87.40;;;;;;5011880;28;20502;-85
2022/12/21 10:50:21;;;;;;;6.07;2.67;;;15.00;87.80;;;;;;5015129;28;20029;-86
2022/12/21 10:52:48;;;;;;;7.80;3.25;;;15.00;88.00;;;;;;5015338;28;20024;-86
2022/12/21 10:55:19;;;;;;;12.93;3.38;;;15.00;88.30;;;;;;5012294;28;20395;-86
2022/12/21 10:58:08;;;;;;;6.85;4.28;;;15.00;88.70;;;;;;5012986;28;20026;-87
2022/12/21 11:00:47;;;;;;;12.40;4.93;;;15.00;89.30;;;;;;5003193;28;20034;-87
2022/12/21 11:03:34;;;;;;;11.07;5.25;;;15.00;89.60;;;;;;5018033;28;20033;-89
2022/12/21 11:06:13;;;;;;;20.70;5.47;;;15.10;90.00;;;;;;5015166;28;20022;-88
2022/12/21 11:08:48;;;;;;;19.33;5.28;;;15.10;90.00;;;;;;5012209;28;20106;-89
2022/12/21 11:11:29;;;;;;;10.38;5.20;;;15.00;89.90;;;;;;5014421;28;20522;-89
2022/12/21 11:14:16;;;;;;;10.88;5.07;;;15.10;89.90;;;;;;4998620;28;20077;-88
2022/12/21 11:16:44;;;;;;;14.40;5.95;;;15.10;90.00;;;;;;5013891;28;20502;-89
2022/12/21 11:19:34;;;;;;;20.13;6.28;;;15.10;90.00;;;;;;5013788;28;20029;-89
2022/12/21 11:22:00;;;;;;;18.73;6.40;;;15.10;90.10;;;;;;5015550;28;20387;-89
2022/12/21 11:24:37;;;;;;;16.17;7.13;;;15.10;90.20;;;;;;5008599;28;20033;-88
2022/12/21 11:27:12;;;;;;;17.65;6.47;;;15.10;90.20;;;;;;5013647;28;20084;-89
2022/12/21 11:29:50;;;;;;;17.48;6.28;;;15.10;90.20;;;;;;5015591;28;20032;-89
2022/12/21 11:32:17;;;;;;;16.17;6.53;;;15.10;90.30;;;;;;5015387;28;20030;-89
2022/12/21 11:34:49;;;;;;;30.00;8.13;;;15.10;90.30;;;;;;5007792;28;20042;-89
2022/12/21 11:37:35;;;;;;;15.95;6.93;;;15.10;90.30;;;;;;5015264;28;20022;-89
2022/12/21 11:40:25;;;;;;;14.50;6.50;;;15.20;90.30;;;;;;5014765;28;20042;-89
2022/12/21 11:42:59;;;;;;;16.20;5.72;;;15.20;90.40;;;;;;5006410;28;20030;-89
2022/12/21 11:45:40;;;;;;;14.73;5.65;;;15.20;90.40;;;;;;5004809;28;20057;-89
2022/12/21 11:48:20;;;;;;;13.98;5.93;;;15.20;90.40;;;;;;5014314;28;20112;-89
2022/12/21 11:50:49;;;;;;;;;;;15.20;90.50;;;;;;5015757;28;20387;-88
2022/12/21 11:53:39;;;;;;;19.85;5.88;;;15.20;90.40;;;;;;5014285;28;19916;-87
2022/12/21 11:56:32;;;;;;;17.90;5.85;;;15.20;90.40;;;;;;5019927;28;20030;-88
2022/12/21 11:59:28;;;;;;;11.63;5.53;;;15.30;90.40;;;;;;5039203;28;20021;-88
2022/12/21 12:02:19;;;;;;;15.25;6.03;;;15.30;90.30;;;;;;5041813;28;20093;-90
2022/12/21 12:04:58;;;;;;;;;;;15.30;90.30;;;;;;5049643;28;20018;-93
2022/12/21 12:07:35;;;;;;;20.75;5.90;;;15.40;90.30;;;;;;5031522;28;19909;-93
2022/12/21 12:10:10;;;;;;;15.00;5.45;;;15.40;90.30;;;;;;5029934;28;20033;-90
2022/12/21 12:12:54;;;;;;;25.27;5.60;;;15.50;90.30;;;;;;5038782;28;20026;-93
2022/12/21 12:15:41;;;;;;;19.10;6.13;;;15.60;90.20;;;;;;5040343;28;20010;-92
2022/12/21 12:18:40;;;;;;;15.45;5.90;;;15.70;90.20;;;;;;5039482;28;20022;-91
2022/12/21 12:21:21;;;;;;;19.60;5.65;;;15.60;90.30;;;;;;5015749;28;20506;-90
2022/12/21 12:23:53;;;;;;;14.88;5.88;;;15.60;90.40;;;;;;5016483;28;20025;-90
2022/12/21 12:26:42;;;;;;;16.80;6.72;;;15.60;90.40;;;;;;5015166;28;20034;-90
2022/12/21 12:29:11;;;;;;;17.77;6.32;;;15.60;90.50;;;;;;5015093;28;20026;-90
2022/12/21 12:32:07;;;;;;;13.25;5.95;;;15.60;90.50;;;;;;5015013;28;20033;-90
2022/12/21 12:34:55;;;;;;;22.15;6.03;;;15.60;90.50;;;;;;5022994;28;20029;-90
2022/12/21 12:37:38;;;;;;;18.65;5.75;;;15.60;90.50;;;;;;5015120;28;20057;-91
2022/12/21 12:40:29;;;;;;;14.35;5.65;;;15.60;90.40;;;;;;5004740;28;20033;-91
2022/12/21 12:43:02;;;;;;;17.23;6.43;;;15.60;90.40;;;;;;5014968;28;20041;-91
2022/12/21 12:45:54;;;;;;;14.68;6.15;;;15.60;90.40;;;;;;5014818;28;20026;-91
2022/12/21 12:48:34;;;;;;;15.38;5.18;;;15.60;90.40;;;;;;5014559;28;20026;-91
2022/12/21 12:51:34;;;;;;;10.63;4.75;;;15.60;90.40;;;;;;5014525;28;20045;-91
2022/12/21 12:54:10;;;;;;;16.52;6.05;;;15.60;90.40;;;;;;5016764;28;20034;-91
2022/12/21 12:57:00;;;;;;;16.20;5.35;;;15.60;90.40;;;;;;5014659;28;20029;-91
2022/12/21 12:59:44;;;;;;;12.98;5.05;;;15.60;90.40;;;;;;5014638;28;20033;-91
2022/12/21 13:02:30;;;;;;;22.42;6.25;;;15.60;90.40;;;;;;5014474;28;20053;-90
2022/12/21 13:05:24;;;;;;;15.05;5.43;;;15.70;90.50;;;;;;5024699;28;20440;-89
2022/12/21 13:07:49;;;;;;;22.77;6.25;;;15.70;90.50;;;;;;5019586;28;20084;-90
2022/12/21 13:10:48;;;;;;;15.93;5.47;;;15.80;90.50;;;;;;5014275;28;20029;-90
2022/12/21 13:13:28;;;;;;;16.55;4.90;;;15.80;90.40;;;;;;5014208;28;20061;-90
2022/12/21 13:16:17;;;;;;;13.75;5.10;;;15.80;90.40;;;;;;5015470;28;20049;-90
2022/12/21 13:18:52;;;;;;;15.88;5.07;;;15.90;90.30;;;;;;5005286;28;20475;-91
2022/12/21 13:21:21;;;;;;;9.38;4.13;;;15.90;90.30;;;;;;5014564;28;20030;-90